| time (UTC) | temp F | wind direction | speed MPH | gust MPH | rain 1hr in | rain 24hr in | rain mn in | humidity % | barometer mb |
| 20260906190006 | 103 | 176 | 4.0 | 9.0 | 0.00 | 0.00 | 0.00 | 37 | 1008.5 |
| 20260906184509 | 102 | 253 | 4.0 | 9.0 | 0.00 | 0.00 | 0.00 | 39 | 1008.6 |
| 20260906183004 | 101 | 143 | 5.0 | 8.0 | 0.00 | 0.00 | 0.00 | 40 | 1008.9 |
| 20260906181503 | 99 | 215 | 2.0 | 5.0 | 0.00 | 0.00 | 0.00 | 42 | 1009.2 |
| 20260906180002 | 100 | 154 | 2.0 | 5.0 | 0.00 | 0.00 | 0.00 | 41 | 1009.5 |
| 20260906174600 | 102 | 84 | 4.0 | 10.0 | 0.00 | 0.00 | 0.00 | 40 | 1009.8 |
| 20260906173056 | 102 | 15 | 3.0 | 7.0 | 0.00 | 0.00 | 0.00 | 41 | 1010.1 |
| 20260906171559 | 101 | 328 | 2.0 | 8.0 | 0.00 | 0.00 | 0.00 | 41 | 1010.3 |
| 20260906170057 | 101 | 57 | 1.0 | 5.0 | 0.00 | 0.00 | 0.00 | 43 | 1010.5 |
| 20260906164543 | 100 | 62 | 4.0 | 7.0 | 0.00 | 0.00 | 0.00 | 42 | 1010.6 |
| 20260906163039 | 100 | 139 | 1.0 | 4.0 | 0.00 | 0.00 | 0.00 | 45 | 1010.8 |
| 20260906161535 | 98 | 23 | 1.0 | 4.0 | 0.00 | 0.00 | 0.00 | 47 | 1010.8 |
| 20260906160034 | 97 | 49 | 0.0 | 5.0 | 0.00 | 0.00 | 0.00 | 48 | 1010.7 |
| 20260906154526 | 96 | 333 | 1.0 | 8.0 | 0.00 | 0.00 | 0.00 | 50 | 1010.8 |
| 20260906153027 | 94 | 342 | 2.0 | 5.0 | 0.00 | 0.00 | 0.00 | 53 | 1010.8 |
| 20260906151518 | 92 | 271 | 3.0 | 8.0 | 0.00 | 0.00 | 0.00 | 55 | 1010.7 |
| 20260906150013 | 91 | 240 | 1.0 | 4.0 | 0.00 | 0.00 | 0.00 | 58 | 1010.8 |
| 20260906144512 | 89 | 261 | 2.0 | 7.0 | 0.00 | 0.00 | 0.00 | 60 | 1010.9 |
| 20260906143006 | 89 | 239 | 3.0 | 8.0 | 0.00 | 0.00 | 0.00 | 61 | 1010.9 |
| 20260906141506 | 88 | 279 | 1.0 | 4.0 | 0.00 | 0.00 | 0.00 | 65 | 1010.8 |
| 20260906134554 | 84 | 174 | 2.0 | 6.0 | 0.00 | 0.00 | 0.00 | 72 | 1010.6 |
| 20260906133112 | 81 | 171 | 0.0 | 3.0 | 0.00 | 0.00 | 0.00 | 76 | 1010.5 |
| 20260906131550 | 79 | 171 | 0.0 | 0.0 | 0.00 | 0.00 | 0.00 | 80 | 1010.5 |
| 20260906130105 | 76 | 171 | 0.0 | 0.0 | 0.00 | 0.00 | 0.00 | 82 | 1010.4 |
| 20260906124546 | 75 | 171 | 0.0 | 0.0 | 0.00 | 0.00 | 0.00 | 84 | 1010.2 |
| 20260906123044 | 74 | 171 | 0.0 | 0.0 | 0.00 | 0.00 | 0.00 | 83 | 1009.9 |
| 20260906121544 | 74 | 171 | 0.0 | 0.0 | 0.00 | 0.00 | 0.00 | 84 | 1009.9 |
| 20260906120041 | 74 | 171 | 0.0 | 0.0 | 0.00 | 0.00 | 0.00 | 84 | 1009.7 |
| 20260906114547 | 74 | 171 | 0.0 | 2.0 | 0.00 | 0.00 | 0.00 | 84 | 1009.6 |
| 20260906113042 | 74 | 171 | 0.0 | 0.0 | 0.00 | 0.00 | 0.00 | 85 | 1009.7 |
| 20260906111547 | 74 | 171 | 0.0 | 0.0 | 0.00 | 0.00 | 0.00 | 84 | 1009.6 |
| 20260906110037 | 74 | 171 | 0.0 | 0.0 | 0.00 | 0.00 | 0.00 | 84 | 1009.6 |
| 20260906104535 | 75 | 171 | 0.0 | 0.0 | 0.00 | 0.00 | 0.00 | 82 | 1009.6 |
| 20260906103032 | 75 | 171 | 0.0 | 0.0 | 0.00 | 0.00 | 0.00 | 82 | 1009.5 |
| 20260906101531 | 76 | 171 | 0.0 | 0.0 | 0.00 | 0.00 | 0.00 | 81 | 1009.4 |
| 20260906100036 | 76 | 171 | 0.0 | 0.0 | 0.00 | 0.00 | 0.00 | 81 | 1009.6 |
| 20260906094529 | 76 | 171 | 0.0 | 0.0 | 0.00 | 0.00 | 0.00 | 80 | 1009.4 |
| 20260906093029 | 76 | 171 | 0.0 | 0.0 | 0.00 | 0.00 | 0.00 | 80 | 1009.1 |
| 20260906091526 | 76 | 171 | 0.0 | 0.0 | 0.00 | 0.00 | 0.00 | 79 | 1009.2 |
| 20260906090020 | 77 | 171 | 0.0 | 0.0 | 0.00 | 0.00 | 0.00 | 80 | 1009.1 |
| 20260906084517 | 78 | 171 | 1.0 | 2.0 | 0.00 | 0.00 | 0.00 | 78 | 1008.9 |
| 20260906083015 | 78 | 171 | 1.0 | 2.0 | 0.00 | 0.00 | 0.00 | 77 | 1008.8 |
| 20260906081518 | 79 | 171 | 0.0 | 0.0 | 0.00 | 0.00 | 0.00 | 76 | 1008.6 |
| 20260906080014 | 79 | 171 | 0.0 | 0.0 | 0.00 | 0.00 | 0.00 | 75 | 1008.7 |
| 20260906074511 | 78 | 171 | 0.0 | 0.0 | 0.00 | 0.00 | 0.00 | 75 | 1008.7 |
| 20260906073009 | 78 | 169 | 0.0 | 3.0 | 0.00 | 0.00 | 0.00 | 74 | 1008.7 |
| 20260906071509 | 79 | 169 | 0.0 | 2.0 | 0.00 | 0.00 | 0.00 | 72 | 1008.8 |
| 20260906070005 | 79 | 169 | 4.0 | 11.0 | 0.00 | 0.00 | 0.00 | 72 | 1008.9 |
| 20260906064503 | 80 | 137 | 0.0 | 0.0 | 0.00 | 0.00 | 0.00 | 72 | 1008.6 |
| 20260906063002 | 80 | 137 | 0.0 | 0.0 | 0.00 | 0.00 | 0.00 | 72 | 1008.7 |
| 20260906061603 | 81 | 137 | 0.0 | 0.0 | 0.00 | 0.00 | 0.00 | 72 | 1008.7 |
| 20260906060057 | 81 | 137 | 0.0 | 0.0 | 0.00 | 0.00 | 0.00 | 71 | 1008.7 |
| 20260906054603 | 82 | 137 | 0.0 | 0.0 | 0.00 | 0.00 | 0.00 | 67 | 1008.8 |
| 20260906053059 | 82 | 137 | 0.0 | 0.0 | 0.00 | 0.00 | 0.00 | 67 | 1008.8 |
| 20260906051607 | 83 | 137 | 0.0 | 0.0 | 0.00 | 0.00 | 0.00 | 64 | 1008.8 |
| 20260906050047 | 83 | 137 | 0.0 | 0.0 | 0.00 | 0.00 | 0.00 | 64 | 1008.7 |
| 20260906044553 | 83 | 137 | 0.0 | 0.0 | 0.00 | 0.00 | 0.00 | 65 | 1008.6 |
| 20260906043047 | 82 | 137 | 0.0 | 0.0 | 0.00 | 0.00 | 0.00 | 65 | 1008.5 |
| 20260906041546 | 83 | 137 | 0.0 | 0.0 | 0.00 | 0.00 | 0.00 | 68 | 1008.6 |
| 20260906040123 | 84 | 137 | 0.0 | 0.0 | 0.00 | 0.00 | 0.00 | 63 | 1008.6 |
| 20260906034550 | 84 | 137 | 0.0 | 0.0 | 0.00 | 0.00 | 0.00 | 63 | 1008.6 |
| 20260906033101 | 85 | 137 | 0.0 | 0.0 | 0.00 | 0.00 | 0.00 | 64 | 1008.6 |
| 20260906031543 | 86 | 137 | 0.0 | 0.0 | 0.00 | 0.00 | 0.00 | 59 | 1008.4 |
| 20260906030043 | 87 | 137 | 0.0 | 0.0 | 0.00 | 0.00 | 0.00 | 56 | 1008.3 |
| 20260906024544 | 87 | 137 | 0.0 | 0.0 | 0.00 | 0.00 | 0.00 | 56 | 1008.2 |
| 20260906023042 | 88 | 137 | 0.0 | 0.0 | 0.00 | 0.00 | 0.00 | 58 | 1008.1 |
| 20260906021538 | 89 | 137 | 0.0 | 0.0 | 0.00 | 0.00 | 0.00 | 52 | 1007.8 |
| 20260906020035 | 89 | 137 | 0.0 | 0.0 | 0.00 | 0.00 | 0.00 | 50 | 1007.7 |
| 20260906014530 | 90 | 137 | 0.0 | 0.0 | 0.00 | 0.00 | 0.00 | 50 | 1007.4 |
| 20260906013032 | 91 | 137 | 0.0 | 0.0 | 0.00 | 0.00 | 0.00 | 48 | 1007.3 |
| 20260906011528 | 93 | 137 | 0.0 | 0.0 | 0.00 | 0.00 | 0.00 | 47 | 1007.3 |
| 20260906010027 | 95 | 137 | 0.0 | 0.0 | 0.00 | 0.00 | 0.00 | 45 | 1007.3 |
| 20260906004527 | 97 | 137 | 0.0 | 0.0 | 0.00 | 0.00 | 0.00 | 43 | 1007.2 |
| 20260906003027 | 98 | 137 | 0.0 | 0.0 | 0.00 | 0.00 | 0.00 | 42 | 1007.4 |
| 20260906001526 | 98 | 137 | 0.0 | 2.0 | 0.00 | 0.00 | 0.00 | 42 | 1007.4 |
| 20260906000026 | 99 | 137 | 2.0 | 5.0 | 0.00 | 0.00 | 0.00 | 41 | 1007.2 |
| 20260905234525 | 99 | 136 | 3.0 | 9.0 | 0.00 | 0.00 | 0.00 | 40 | 1007.1 |
| 20260905233025 | 100 | 149 | 3.0 | 7.0 | 0.00 | 0.00 | 0.00 | 39 | 1007.1 |
| 20260905231525 | 100 | 182 | 4.0 | 8.0 | 0.00 | 0.00 | 0.00 | 40 | 1007.0 |
| 20260905230024 | 100 | 147 | 2.0 | 9.0 | 0.00 | 0.00 | 0.00 | 40 | 1007.0 |
| 20260905224555 | 101 | 136 | 4.0 | 12.0 | 0.00 | 0.00 | 0.00 | 40 | 1007.0 |
| 20260905223023 | 101 | 181 | 3.0 | 9.0 | 0.00 | 0.00 | 0.00 | 40 | 1006.9 |
| 20260905221521 | 101 | 166 | 4.0 | 11.0 | 0.00 | 0.00 | 0.00 | 39 | 1007.0 |
| 20260905220019 | 101 | 152 | 4.0 | 10.0 | 0.00 | 0.00 | 0.00 | 40 | 1007.2 |
| 20260905214517 | 101 | 134 | 5.0 | 9.0 | 0.00 | 0.00 | 0.00 | 41 | 1007.2 |
| 20260905213016 | 101 | 117 | 4.0 | 11.0 | 0.00 | 0.00 | 0.00 | 41 | 1007.4 |
| 20260905211535 | 101 | 146 | 6.0 | 12.0 | 0.00 | 0.00 | 0.00 | 41 | 1007.6 |
| 20260905210020 | 102 | 122 | 5.0 | 17.0 | 0.00 | 0.00 | 0.00 | 40 | 1007.8 |
| 20260905204510 | 102 | 134 | 5.0 | 12.0 | 0.00 | 0.00 | 0.00 | 41 | 1008.0 |
| 20260905203108 | 101 | 135 | 6.0 | 15.0 | 0.00 | 0.00 | 0.00 | 41 | 1008.2 |
| 20260905201504 | 101 | 134 | 3.0 | 10.0 | 0.00 | 0.00 | 0.00 | 42 | 1008.6 |
| 20260905200105 | 101 | 162 | 2.0 | 10.0 | 0.00 | 0.00 | 0.00 | 41 | 1008.8 |
| 20260905194558 | 100 | 132 | 8.0 | 12.0 | 0.00 | 0.00 | 0.00 | 41 | 1009.1 |
| 20260905193056 | 99 | 132 | 4.0 | 11.0 | 0.00 | 0.00 | 0.00 | 44 | 1009.2 |
| 20260905191602 | 99 | 154 | 6.0 | 16.0 | 0.00 | 0.00 | 0.00 | 43 | 1009.4 |